createdAt,value
2023-02-14T11:13:38.810Z,13.77
2023-02-14T11:16:09.793Z,13.13
2023-02-14T11:18:39.720Z,13.30
2023-02-14T11:21:13.364Z,14.25
2023-02-14T11:23:45.539Z,13.82
2023-02-14T11:26:24.160Z,14.77
2023-02-14T11:28:58.414Z,13.65
2023-02-14T11:31:39.330Z,12.57
2023-02-14T11:34:24.814Z,12.80
2023-02-14T11:36:51.702Z,12.48
2023-02-14T11:39:32.391Z,14.23
2023-02-14T11:42:04.463Z,15.73
2023-02-14T11:44:36.917Z,16.55
2023-02-14T11:47:41.770Z,15.43
2023-02-14T11:50:29.196Z,14.38
2023-02-14T11:52:57.151Z,14.57
2023-02-14T11:55:30.468Z,14.65
2023-02-14T11:57:58.146Z,14.60
2023-02-14T12:00:27.068Z,13.43
2023-02-14T12:02:55.794Z,13.55
2023-02-14T12:05:32.014Z,12.98
2023-02-14T12:08:02.298Z,12.95
2023-02-14T12:10:31.626Z,13.18
2023-02-14T12:13:03.486Z,13.93
2023-02-14T12:15:48.735Z,14.02
2023-02-14T12:18:40.530Z,14.73
2023-02-14T12:21:25.356Z,15.52
2023-02-14T12:24:02.736Z,13.90
2023-02-14T12:26:36.804Z,15.13
2023-02-14T12:29:14.434Z,14.02
2023-02-14T12:31:43.356Z,13.75
2023-02-14T12:34:13.445Z,14.95
2023-02-14T12:37:08.518Z,13.70
2023-02-14T12:39:59.514Z,13.80
2023-02-14T12:42:38.515Z,13.98
2023-02-14T12:45:30.262Z,14.18
2023-02-14T12:48:06.328Z,14.65
2023-02-14T12:50:39.151Z,14.80
2023-02-14T12:53:32.811Z,13.70
2023-02-14T12:56:44.707Z,13.43
2023-02-14T12:59:19.995Z,13.85
2023-02-14T13:01:49.470Z,13.50
2023-02-14T13:04:22.798Z,13.98
2023-02-14T13:06:56.809Z,14.15
2023-02-14T13:09:51.298Z,14.23
2023-02-14T13:12:31.492Z,15.00
2023-02-14T13:15:03.787Z,13.50
2023-02-14T13:18:12.134Z,14.10
2023-02-14T13:20:50.800Z,13.15
2023-02-14T13:23:52.857Z,14.25
2023-02-14T13:26:25.650Z,13.48
2023-02-14T13:29:20.570Z,15.10
2023-02-14T13:31:48.721Z,14.57
2023-02-14T13:34:37.033Z,14.50
2023-02-14T13:37:08.165Z,14.30
2023-02-14T13:39:40.137Z,14.60
2023-02-14T13:42:07.449Z,14.88
2023-02-14T13:44:50.631Z,14.07
2023-02-14T13:47:24.896Z,15.23
2023-02-14T13:49:58.263Z,15.20
2023-02-14T13:52:48.810Z,15.43
2023-02-14T13:55:44.247Z,14.82
2023-02-14T13:58:21.924Z,14.65
2023-02-14T14:00:49.749Z,17.55
2023-02-14T14:03:39.275Z,15.43
2023-02-14T14:06:08.962Z,15.35
2023-02-14T14:08:41.327Z,14.38
2023-02-14T14:11:12.397Z,14.70
2023-02-14T14:13:42.209Z,15.13
2023-02-14T14:16:24.549Z,15.07
2023-02-14T14:19:10.486Z,15.77
2023-02-14T14:21:39.488Z,15.32
2023-02-14T14:24:26.271Z,14.90
2023-02-14T14:27:01.201Z,14.95
2023-02-14T14:29:35.670Z,15.98
2023-02-14T14:32:33.200Z,15.23
2023-02-14T14:35:03.388Z,14.35
2023-02-14T14:37:45.715Z,14.15
2023-02-14T14:40:36.779Z,16.98
2023-02-14T14:43:13.750Z,13.50
2023-02-14T14:45:41.916Z,15.35
2023-02-14T14:48:17.121Z,15.23
2023-02-14T14:50:46.556Z,13.73
2023-02-14T14:53:26.756Z,14.13
2023-02-14T14:55:54.935Z,13.48
2023-02-14T14:58:38.119Z,13.20
2023-02-14T15:01:06.942Z,14.18
2023-02-14T15:03:34.251Z,13.88
2023-02-14T15:06:17.448Z,13.77
2023-02-14T15:08:45.369Z,13.20
2023-02-14T15:11:40.909Z,13.73
2023-02-14T15:14:21.905Z,12.90
2023-02-14T15:16:52.605Z,13.93
2023-02-14T15:19:34.907Z,13.75
2023-02-14T15:22:08.079Z,12.80
2023-02-14T15:24:38.336Z,13.40
2023-02-14T15:27:05.498Z,14.55
2023-02-14T15:29:33.677Z,12.95
2023-02-14T15:32:03.389Z,13.55
2023-02-14T15:34:33.336Z,12.30
2023-02-14T15:37:06.465Z,13.13
2023-02-14T15:39:40.593Z,13.05
2023-02-14T15:42:40.307Z,13.50
2023-02-14T15:45:25.620Z,13.40
2023-02-14T15:47:55.709Z,14.07
2023-02-14T15:50:26.432Z,13.18
2023-02-14T15:52:56.488Z,13.73
2023-02-14T15:55:26.658Z,14.35
2023-02-14T15:58:15.803Z,14.05
2023-02-14T16:00:45.111Z,14.23
2023-02-14T16:03:19.860Z,13.27
2023-02-14T16:05:48.454Z,12.95
2023-02-14T16:08:39.268Z,13.27
2023-02-14T16:11:16.057Z,13.35
2023-02-14T16:13:45.496Z,13.10
2023-02-14T16:16:14.231Z,12.93
2023-02-14T16:18:45.288Z,13.20
2023-02-14T16:21:20.965Z,13.52
2023-02-14T16:24:07.663Z,13.40
2023-02-14T16:26:36.261Z,12.52
2023-02-14T16:29:08.555Z,13.90
2023-02-14T16:31:38.140Z,12.32
2023-02-14T16:34:05.290Z,12.93
2023-02-14T16:36:34.177Z,11.57
2023-02-14T16:39:05.263Z,11.80
2023-02-14T16:41:35.062Z,13.15
2023-02-14T16:44:01.964Z,12.93
2023-02-14T16:46:35.780Z,13.32
2023-02-14T16:49:02.657Z,13.55
2023-02-14T16:51:32.876Z,11.63
2023-02-14T16:54:03.433Z,13.13
2023-02-14T16:56:33.043Z,12.85
2023-02-14T16:59:00.200Z,12.98
2023-02-14T17:01:27.073Z,13.35
2023-02-14T17:03:54.040Z,12.60
2023-02-14T17:06:23.361Z,12.77
2023-02-14T17:08:52.601Z,12.52
2023-02-14T17:11:20.192Z,14.10
2023-02-14T17:13:47.872Z,13.27
2023-02-14T17:16:17.619Z,13.38
2023-02-14T17:18:47.762Z,14.32
2023-02-14T17:21:16.001Z,13.32
2023-02-14T17:23:42.911Z,13.13
2023-02-14T17:26:11.341Z,12.43
2023-02-14T17:28:38.121Z,13.63
2023-02-14T17:31:05.285Z,13.75
2023-02-14T17:33:33.189Z,13.38
2023-02-14T17:36:09.599Z,13.98
2023-02-14T17:38:38.994Z,12.90
2023-02-14T17:41:22.428Z,14.13
2023-02-14T17:43:50.030Z,12.52
2023-02-14T17:46:18.824Z,13.75
2023-02-14T17:48:46.450Z,13.82
2023-02-14T17:51:15.211Z,14.25
2023-02-14T17:53:42.506Z,13.50
2023-02-14T17:56:19.364Z,13.43
2023-02-14T17:58:50.829Z,13.60
2023-02-14T18:01:21.185Z,13.63
2023-02-14T18:03:48.208Z,13.40
2023-02-14T18:06:15.490Z,13.20
2023-02-14T18:08:46.718Z,14.40
2023-02-14T18:11:14.221Z,14.60
2023-02-14T18:13:40.999Z,13.95
2023-02-14T18:16:14.372Z,13.15
2023-02-14T18:18:42.264Z,14.20
2023-02-14T18:21:12.053Z,13.70
2023-02-14T18:23:39.484Z,13.52
2023-02-14T18:26:10.249Z,13.60
2023-02-14T18:28:37.043Z,13.18
2023-02-14T18:31:06.596Z,13.05
2023-02-14T18:33:34.310Z,13.50
2023-02-14T18:36:12.170Z,13.30
2023-02-14T18:38:39.814Z,14.35
2023-02-14T18:41:08.417Z,13.60
2023-02-14T18:43:36.191Z,13.00
2023-02-14T18:46:05.672Z,13.43
2023-02-14T18:48:33.647Z,13.05
2023-02-14T18:51:13.926Z,12.40
2023-02-14T18:53:42.100Z,13.88
2023-02-14T18:56:14.534Z,13.55
2023-02-14T18:58:43.844Z,14.45
2023-02-14T19:01:18.861Z,14.00
2023-02-14T19:03:46.477Z,13.85
2023-02-14T19:06:13.416Z,13.40
2023-02-14T19:08:41.077Z,13.75
2023-02-14T19:11:16.965Z,13.38
2023-02-14T19:13:46.566Z,13.80
2023-02-14T19:16:16.156Z,14.65
2023-02-14T19:18:43.372Z,15.05
2023-02-14T19:21:20.318Z,14.02
2023-02-14T19:23:48.377Z,14.02
2023-02-14T19:26:21.190Z,14.02
2023-02-14T19:28:50.425Z,13.63
2023-02-14T19:31:17.513Z,13.27
2023-02-14T19:33:46.668Z,13.35
2023-02-14T19:36:15.704Z,12.38
2023-02-14T19:38:44.839Z,14.05
2023-02-14T19:41:26.262Z,13.23
2023-02-14T19:46:22.007Z,13.85
2023-02-14T19:48:49.710Z,14.02
2023-02-14T19:51:29.407Z,12.95
2023-02-14T19:53:58.153Z,13.98
2023-02-14T19:56:30.717Z,12.82
2023-02-14T19:58:57.732Z,13.35
2023-02-14T20:01:39.682Z,14.02
2023-02-14T20:04:10.087Z,12.88
2023-02-14T20:06:38.411Z,12.88
2023-02-14T20:09:06.403Z,13.52
2023-02-14T20:11:50.202Z,14.57
2023-02-14T20:14:28.509Z,14.05
2023-02-14T20:16:58.208Z,14.18
2023-02-14T20:19:27.956Z,13.95
2023-02-14T20:21:55.164Z,13.18
2023-02-14T20:24:24.780Z,13.85
2023-02-14T20:26:52.325Z,13.13
2023-02-14T20:29:20.276Z,13.32
2023-02-14T20:31:50.610Z,14.25
2023-02-14T20:34:18.360Z,13.47
2023-02-14T20:36:49.739Z,13.23
2023-02-14T20:41:46.426Z,12.98
2023-02-14T20:44:15.637Z,14.20
2023-02-14T20:46:42.532Z,12.88
2023-02-14T20:49:11.940Z,13.25
2023-02-14T20:51:39.189Z,11.85
2023-02-14T20:54:06.111Z,13.60
2023-02-14T20:56:33.010Z,13.02
2023-02-14T20:59:03.348Z,12.52
2023-02-14T21:01:30.783Z,13.60
2023-02-14T21:03:57.626Z,13.80
2023-02-14T21:06:27.753Z,13.73
2023-02-14T21:08:54.657Z,13.35
2023-02-14T21:11:24.242Z,13.20
2023-02-14T21:13:55.354Z,14.05
2023-02-14T21:16:22.585Z,13.48
2023-02-14T21:18:55.199Z,14.20
2023-02-14T21:21:25.981Z,13.20
2023-02-14T21:23:53.457Z,14.18
2023-02-14T21:26:21.431Z,14.15
2023-02-14T21:28:48.488Z,13.63
2023-02-14T21:31:18.098Z,13.88
2023-02-14T21:33:44.920Z,13.68
2023-02-14T21:36:17.806Z,13.18
2023-02-14T21:38:44.695Z,14.38
2023-02-14T21:41:15.012Z,15.38
2023-02-14T21:43:45.184Z,13.33
2023-02-14T21:46:16.091Z,13.65
2023-02-14T21:49:02.226Z,13.95
2023-02-14T21:51:29.988Z,14.48
2023-02-14T21:53:57.428Z,13.65
2023-02-14T21:56:24.202Z,14.10
2023-02-14T21:58:52.888Z,13.73
2023-02-14T22:01:25.752Z,13.45
2023-02-14T22:03:53.415Z,13.55
2023-02-14T22:06:20.643Z,14.50
2023-02-14T22:08:58.821Z,14.07
2023-02-14T22:11:28.028Z,13.95
2023-02-14T22:13:56.048Z,13.77
2023-02-14T22:16:23.814Z,13.70
2023-02-14T22:18:51.228Z,13.15
2023-02-14T22:21:21.117Z,14.50
2023-02-14T22:23:48.186Z,13.32
2023-02-14T22:26:22.955Z,14.65
2023-02-14T22:28:51.107Z,13.57
2023-02-14T22:31:19.152Z,15.80
2023-02-14T22:33:47.650Z,12.60
2023-02-14T22:36:15.124Z,14.10
2023-02-14T22:38:42.896Z,13.25
2023-02-14T22:41:17.999Z,15.57
2023-02-14T22:43:45.356Z,14.30
2023-02-14T22:46:17.173Z,14.50
2023-02-14T22:48:44.745Z,14.65
2023-02-14T22:51:13.002Z,14.65
2023-02-14T22:53:40.051Z,14.40
2023-02-14T22:56:18.093Z,14.52
2023-02-14T22:58:45.002Z,15.40
2023-02-14T23:01:20.108Z,15.20
2023-02-14T23:03:48.062Z,13.98
2023-02-14T23:06:15.604Z,15.35
2023-02-14T23:08:45.048Z,15.95
2023-02-14T23:11:21.213Z,16.98
2023-02-14T23:14:06.768Z,16.38
2023-02-14T23:16:52.077Z,15.45
2023-02-14T23:19:46.040Z,15.95
2023-02-14T23:22:20.525Z,16.13
2023-02-14T23:24:52.220Z,15.82
2023-02-14T23:27:22.920Z,16.17
2023-02-14T23:29:49.746Z,16.05
2023-02-14T23:32:16.867Z,15.68
2023-02-14T23:34:44.751Z,15.90
2023-02-14T23:37:13.889Z,16.02
2023-02-14T23:39:41.236Z,15.57
2023-02-14T23:42:13.935Z,15.18
2023-02-14T23:44:42.337Z,15.75
2023-02-14T23:47:10.361Z,16.40
2023-02-14T23:49:39.301Z,17.30
2023-02-14T23:52:11.388Z,15.80
2023-02-14T23:54:38.937Z,16.60
2023-02-14T23:57:07.485Z,15.90
2023-02-14T23:59:34.396Z,16.63
